createdAt,value
2022-11-22T00:00:44.150Z,16.20
2022-11-22T00:03:11.199Z,22.77
2022-11-22T00:05:39.252Z,19.15
2022-11-22T00:08:06.474Z,19.75
2022-11-22T00:10:33.449Z,18.90
2022-11-22T00:13:02.744Z,22.27
2022-11-22T00:15:30.112Z,20.40
2022-11-22T00:17:57.393Z,21.92
2022-11-22T00:20:25.371Z,18.98
2022-11-22T00:22:52.339Z,27.85
2022-11-22T00:25:19.802Z,15.60
2022-11-22T00:27:46.808Z,20.08
2022-11-22T00:30:14.648Z,21.50
2022-11-22T00:32:41.807Z,18.58
2022-11-22T00:35:09.602Z,23.58
2022-11-22T00:37:36.443Z,15.55
2022-11-22T00:40:05.556Z,22.35
2022-11-22T00:42:32.408Z,30.60
2022-11-22T00:44:59.178Z,16.52
2022-11-22T00:47:26.024Z,20.45
2022-11-22T00:49:52.814Z,18.00
2022-11-22T00:52:19.631Z,14.73
2022-11-22T00:54:53.022Z,23.90
2022-11-22T00:57:21.519Z,24.48
2022-11-22T00:59:48.340Z,17.02
2022-11-22T01:02:15.306Z,18.75
2022-11-22T01:04:42.075Z,14.88
2022-11-22T01:07:09.820Z,9.65
2022-11-22T01:09:37.627Z,15.80
2022-11-22T01:12:04.888Z,15.63
2022-11-22T01:14:32.060Z,18.73
2022-11-22T01:16:59.011Z,14.07
2022-11-22T01:19:25.815Z,19.35
2022-11-22T01:21:52.971Z,15.13
2022-11-22T01:24:19.837Z,22.80
2022-11-22T01:26:46.724Z,16.40
2022-11-22T01:29:13.490Z,15.95
2022-11-22T01:31:40.344Z,14.30
2022-11-22T01:34:07.126Z,17.77
2022-11-22T01:36:34.969Z,22.95
2022-11-22T01:39:01.925Z,20.05
2022-11-22T01:41:28.752Z,11.40
2022-11-22T01:43:55.550Z,22.23
2022-11-22T01:46:52.542Z,12.35
2022-11-22T01:49:41.003Z,17.35
2022-11-22T01:52:14.689Z,18.38
2022-11-22T01:54:44.797Z,15.25
2022-11-22T01:57:16.651Z,18.15
2022-11-22T01:59:50.885Z,14.93
2022-11-22T02:02:18.827Z,14.75
2022-11-22T02:04:46.457Z,20.83
2022-11-22T02:07:38.400Z,16.80
2022-11-22T02:10:05.535Z,14.25
2022-11-22T02:12:36.110Z,21.85
2022-11-22T02:15:03.926Z,18.50
2022-11-22T02:17:31.745Z,18.05
2022-11-22T02:19:58.976Z,18.77
2022-11-22T02:22:49.651Z,16.40
2022-11-22T02:25:40.883Z,14.50
2022-11-22T02:28:10.371Z,15.85
2022-11-22T02:30:37.717Z,11.98
2022-11-22T02:33:05.139Z,17.83
2022-11-22T02:35:32.224Z,16.15
2022-11-22T02:38:03.944Z,13.73
2022-11-22T02:40:39.628Z,14.90
2022-11-22T02:43:10.788Z,10.60
2022-11-22T02:45:37.897Z,13.73
2022-11-22T02:48:09.757Z,8.63
2022-11-22T02:50:38.124Z,13.70
2022-11-22T02:53:08.654Z,14.05
2022-11-22T02:55:36.563Z,14.73
2022-11-22T02:58:08.252Z,7.93
2022-11-22T03:00:38.565Z,10.43
2022-11-22T03:03:06.350Z,20.60
2022-11-22T03:05:34.211Z,12.50
2022-11-22T03:08:01.448Z,18.08
2022-11-22T03:10:28.374Z,12.25
2022-11-22T03:12:56.331Z,18.65
2022-11-22T03:15:23.276Z,12.93
2022-11-22T03:18:02.371Z,6.57
2022-11-22T03:20:30.211Z,3.33
2022-11-22T03:22:57.286Z,13.50
2022-11-22T03:25:24.109Z,14.60
2022-11-22T03:27:51.336Z,14.40
2022-11-22T03:30:18.273Z,12.82
2022-11-22T03:32:47.170Z,11.35
2022-11-22T03:35:14.096Z,13.48
2022-11-22T03:37:41.368Z,13.13
2022-11-22T03:40:09.748Z,21.30
2022-11-22T03:42:37.539Z,10.00
2022-11-22T03:45:06.513Z,11.88
2022-11-22T03:47:33.326Z,15.30
2022-11-22T03:50:01.244Z,9.82
2022-11-22T03:52:29.529Z,9.00
2022-11-22T03:54:56.732Z,9.32
2022-11-22T03:57:23.557Z,11.27
2022-11-22T03:59:51.375Z,7.75
2022-11-22T04:02:18.175Z,11.57
2022-11-22T04:04:45.069Z,13.68
2022-11-22T04:07:11.912Z,6.80
2022-11-22T04:09:40.615Z,14.18
2022-11-22T04:12:08.475Z,4.43
2022-11-22T04:14:54.327Z,18.42
2022-11-22T04:17:40.370Z,12.60
2022-11-22T04:20:37.929Z,8.95
2022-11-22T04:23:14.344Z,11.52
2022-11-22T04:25:44.180Z,7.63
2022-11-22T04:28:11.809Z,14.20
2022-11-22T04:30:57.674Z,15.00
2022-11-22T04:33:25.365Z,8.93
2022-11-22T04:35:52.754Z,7.07
2022-11-22T04:38:21.309Z,13.80
2022-11-22T04:40:49.319Z,11.35
2022-11-22T04:43:40.969Z,10.88
2022-11-22T04:46:09.473Z,17.73
2022-11-22T04:48:38.491Z,8.55
2022-11-22T04:51:24.891Z,14.02
2022-11-22T04:53:52.352Z,11.65
2022-11-22T04:56:20.159Z,11.98
2022-11-22T04:58:46.973Z,5.28
2022-11-22T05:01:15.048Z,7.00
2022-11-22T05:03:42.033Z,13.45
2022-11-22T05:06:13.394Z,15.27
2022-11-22T05:08:40.326Z,10.50
2022-11-22T05:11:08.189Z,17.27
2022-11-22T05:13:42.833Z,7.38
2022-11-22T05:16:11.706Z,11.73
2022-11-22T05:18:39.453Z,8.60
2022-11-22T05:21:12.951Z,14.90
2022-11-22T05:23:55.405Z,12.27
2022-11-22T05:26:26.947Z,5.95
2022-11-22T05:28:54.441Z,14.40
2022-11-22T05:31:23.481Z,9.90
2022-11-22T05:33:53.968Z,6.32
2022-11-22T05:36:22.460Z,15.02
2022-11-22T05:38:50.566Z,12.02
2022-11-22T05:41:18.196Z,16.17
2022-11-22T05:43:46.291Z,11.25
2022-11-22T05:46:24.838Z,6.63
2022-11-22T05:48:54.582Z,6.32
2022-11-22T05:51:30.528Z,9.85
2022-11-22T05:53:59.348Z,8.90
2022-11-22T05:56:26.145Z,6.68
2022-11-22T05:58:53.688Z,9.90
2022-11-22T06:01:23.611Z,11.57
2022-11-22T06:03:51.504Z,9.27
2022-11-22T06:06:19.808Z,14.95
2022-11-22T06:08:48.381Z,13.73
2022-11-22T06:11:24.575Z,10.93
2022-11-22T06:13:54.676Z,7.88
2022-11-22T06:16:23.117Z,11.00
2022-11-22T06:18:50.511Z,9.20
2022-11-22T06:21:26.232Z,8.75
2022-11-22T06:23:54.842Z,9.25
2022-11-22T06:26:26.272Z,11.38
2022-11-22T06:28:54.257Z,12.88
2022-11-22T06:31:26.994Z,9.23
2022-11-22T06:33:59.621Z,6.82
2022-11-22T06:38:55.190Z,10.20
2022-11-22T06:41:32.481Z,9.05
2022-11-22T06:43:59.462Z,14.13
2022-11-22T06:46:27.411Z,13.52
2022-11-22T06:48:54.459Z,10.68
2022-11-22T06:51:32.166Z,10.65
2022-11-22T06:53:59.388Z,8.10
2022-11-22T06:56:31.503Z,11.60
2022-11-22T06:59:01.514Z,9.30
2022-11-22T07:01:29.754Z,11.55
2022-11-22T07:03:58.863Z,11.18
2022-11-22T07:06:31.560Z,10.50
2022-11-22T07:08:59.930Z,10.93
2022-11-22T07:11:29.345Z,13.05
2022-11-22T07:14:03.540Z,12.75
2022-11-22T07:16:35.773Z,10.52
2022-11-22T07:19:02.763Z,5.88
2022-11-22T07:21:30.841Z,13.52
2022-11-22T07:23:57.714Z,8.82
2022-11-22T07:26:26.761Z,9.68
2022-11-22T07:28:53.815Z,15.10
2022-11-22T07:31:20.918Z,12.02
2022-11-22T07:33:47.952Z,5.38
2022-11-22T07:36:20.586Z,7.35
2022-11-22T07:38:48.484Z,9.50
2022-11-22T07:41:16.649Z,8.85
2022-11-22T07:43:44.008Z,11.35
2022-11-22T07:46:32.994Z,7.40
2022-11-22T07:49:01.600Z,17.23
2022-11-22T07:51:28.886Z,6.50
2022-11-22T07:53:56.625Z,18.92
2022-11-22T07:56:23.684Z,13.93
2022-11-22T07:58:50.602Z,13.73
2022-11-22T08:01:19.086Z,12.90
2022-11-22T08:03:46.391Z,8.82
2022-11-22T08:06:16.508Z,9.45
2022-11-22T08:08:44.737Z,14.18
2022-11-22T08:11:12.166Z,16.65
2022-11-22T08:13:39.183Z,12.38
2022-11-22T08:16:09.082Z,13.77
2022-11-22T08:18:39.187Z,8.50
2022-11-22T08:21:09.944Z,10.82
2022-11-22T08:23:37.528Z,20.27
2022-11-22T08:26:05.140Z,10.45
2022-11-22T08:28:32.138Z,3.95
2022-11-22T08:31:08.438Z,8.60
2022-11-22T08:33:36.785Z,6.00
2022-11-22T08:36:03.876Z,7.57
2022-11-22T08:38:30.747Z,7.93
2022-11-22T08:40:59.539Z,13.18
2022-11-22T08:43:27.466Z,13.25
2022-11-22T08:45:59.396Z,9.85
2022-11-22T08:48:27.056Z,14.80
2022-11-22T08:50:55.503Z,8.82
2022-11-22T08:53:22.942Z,7.10
2022-11-22T08:55:49.809Z,9.13
2022-11-22T08:58:16.700Z,9.25
2022-11-22T09:00:44.340Z,7.60
2022-11-22T09:03:11.243Z,11.23
2022-11-22T09:08:27.205Z,6.15
2022-11-22T09:11:04.276Z,12.05
2022-11-22T09:13:32.510Z,9.98
2022-11-22T09:16:19.792Z,9.95
2022-11-22T09:18:47.687Z,7.70
2022-11-22T09:21:18.007Z,9.18
2022-11-22T09:23:46.583Z,14.93
2022-11-22T09:26:16.020Z,6.80
2022-11-22T09:28:44.252Z,5.07
2022-11-22T09:31:14.306Z,7.60
2022-11-22T09:33:43.353Z,7.80
2022-11-22T09:36:22.272Z,9.52
2022-11-22T09:38:49.514Z,7.00
2022-11-22T09:41:17.377Z,11.98
2022-11-22T09:44:07.709Z,7.85
2022-11-22T09:47:07.976Z,7.68
2022-11-22T09:50:07.635Z,4.05
2022-11-22T09:52:50.897Z,3.55
2022-11-22T09:55:33.503Z,5.07
2022-11-22T09:58:27.879Z,2.22
2022-11-22T10:01:06.794Z,7.88
2022-11-22T10:04:04.632Z,5.03
2022-11-22T10:06:37.233Z,6.80
2022-11-22T10:09:50.236Z,4.35
2022-11-22T10:12:25.685Z,3.85
2022-11-22T10:15:07.818Z,4.90
2022-11-22T10:17:55.279Z,4.90
2022-11-22T10:20:23.601Z,3.72
2022-11-22T10:22:54.980Z,4.45
2022-11-22T10:25:37.347Z,5.97
2022-11-22T10:28:37.072Z,3.33
2022-11-22T10:31:12.923Z,5.10
2022-11-22T10:33:55.141Z,3.25
2022-11-22T10:36:42.535Z,4.88
2022-11-22T10:39:38.967Z,3.38
2022-11-22T10:42:24.134Z,5.18
2022-11-22T10:45:17.804Z,3.85
2022-11-22T10:47:57.504Z,2.20
2022-11-22T10:50:30.471Z,1.00
2022-11-22T10:52:58.259Z,2.92
2022-11-22T10:55:50.171Z,3.88
2022-11-22T10:58:55.138Z,1.38
2022-11-22T11:01:42.109Z,2.58
2022-11-22T11:04:11.873Z,0.60
2022-11-22T11:07:10.912Z,4.45
2022-11-22T11:12:38.375Z,3.30
2022-11-22T11:15:25.494Z,3.75
2022-11-22T11:18:05.415Z,6.18
2022-11-22T11:20:36.785Z,3.28
2022-11-22T11:23:14.741Z,3.83
2022-11-22T11:25:47.846Z,2.67
2022-11-22T11:28:27.096Z,1.98
2022-11-22T11:31:06.602Z,2.25
2022-11-22T11:33:37.652Z,3.42
2022-11-22T11:36:18.698Z,4.30
2022-11-22T11:38:46.610Z,2.67
2022-11-22T11:41:29.799Z,3.65
2022-11-22T11:44:01.989Z,2.50
2022-11-22T11:46:44.901Z,2.63
2022-11-22T11:49:14.544Z,4.18
2022-11-22T11:52:16.517Z,4.10
2022-11-22T11:54:45.849Z,2.13
2022-11-22T11:57:36.317Z,4.22
2022-11-22T12:00:06.536Z,1.83
2022-11-22T12:02:42.539Z,1.55
2022-11-22T12:05:12.616Z,3.53
2022-11-22T12:07:44.593Z,2.10
2022-11-22T12:10:30.419Z,5.47
2022-11-22T12:13:13.358Z,2.50
2022-11-22T12:15:51.972Z,1.85
2022-11-22T12:18:55.056Z,3.53
2022-11-22T12:21:46.495Z,1.13
2022-11-22T12:24:48.416Z,7.63
2022-11-22T12:27:14.484Z,4.63
2022-11-22T12:29:44.552Z,3.45
2022-11-22T12:32:36.535Z,9.50
2022-11-22T12:35:18.716Z,3.55
2022-11-22T12:38:01.043Z,4.78
2022-11-22T12:40:41.557Z,2.63
2022-11-22T12:43:20.748Z,2.55
2022-11-22T12:46:16.248Z,1.80
2022-11-22T12:48:55.853Z,3.17
2022-11-22T12:52:03.265Z,2.65
2022-11-22T12:54:42.005Z,5.40
2022-11-22T12:57:23.170Z,7.38
2022-11-22T13:00:06.524Z,1.30
2022-11-22T13:02:40.880Z,3.65
2022-11-22T13:05:16.936Z,2.70
2022-11-22T13:08:05.778Z,1.48
2022-11-22T13:10:49.750Z,3.33
2022-11-22T13:13:29.957Z,5.60
2022-11-22T13:16:00.195Z,2.17
2022-11-22T13:18:32.811Z,7.00
2022-11-22T13:23:46.906Z,4.95
2022-11-22T13:26:44.148Z,1.80
2022-11-22T13:29:27.869Z,4.00
2022-11-22T13:32:11.347Z,4.40
2022-11-22T13:34:59.592Z,4.43
2022-11-22T13:37:29.669Z,7.05
2022-11-22T13:40:23.379Z,3.53
2022-11-22T13:43:32.166Z,4.85
2022-11-22T13:46:01.782Z,5.45
2022-11-22T13:48:40.650Z,4.68
2022-11-22T13:51:07.558Z,3.45
2022-11-22T13:53:40.320Z,3.83
2022-11-22T13:56:36.348Z,3.30
2022-11-22T13:59:15.536Z,7.35
2022-11-22T14:01:42.493Z,5.55
2022-11-22T14:04:24.742Z,4.40
2022-11-22T14:06:59.723Z,3.22
2022-11-22T14:09:52.427Z,6.25
2022-11-22T14:12:26.062Z,4.82
2022-11-22T14:15:22.127Z,2.20
2022-11-22T14:18:19.449Z,1.92
2022-11-22T14:21:15.711Z,3.70
2022-11-22T14:24:04.912Z,5.18
2022-11-22T14:27:05.806Z,6.25
2022-11-22T14:30:14.975Z,4.97
2022-11-22T14:32:50.051Z,6.30
2022-11-22T14:35:29.508Z,6.50
2022-11-22T14:38:03.784Z,5.13
2022-11-22T14:40:37.273Z,5.95
2022-11-22T14:43:31.060Z,4.28
2022-11-22T14:46:51.317Z,4.25
2022-11-22T14:49:19.911Z,2.13
2022-11-22T14:51:52.951Z,3.78
2022-11-22T14:54:42.099Z,1.65
2022-11-22T14:57:13.408Z,3.22
2022-11-22T15:00:15.141Z,6.25
2022-11-22T15:03:00.678Z,3.88
2022-11-22T15:09:13.158Z,3.05
2022-11-22T15:09:13.833Z,2.67
2022-11-22T15:11:18.557Z,4.10
2022-11-22T15:14:33.499Z,6.70
2022-11-22T15:57:38.389Z,13.18
2022-11-22T16:00:27.419Z,10.43
2022-11-22T16:03:02.602Z,11.33
2022-11-22T16:06:10.894Z,15.35
2022-11-22T16:08:29.417Z,16.73
2022-11-22T16:11:00.026Z,11.55
2022-11-22T16:13:29.341Z,14.52
2022-11-22T16:16:11.832Z,14.00
2022-11-22T16:18:45.718Z,11.57
2022-11-22T16:21:12.576Z,11.13
2022-11-22T16:23:42.981Z,12.40
2022-11-22T16:26:19.265Z,13.13
2022-11-22T16:28:47.767Z,9.20
2022-11-22T16:31:30.238Z,17.55
2022-11-22T16:34:00.633Z,12.07
2022-11-22T16:36:30.205Z,10.90
2022-11-22T16:38:59.704Z,12.63
2022-11-22T16:41:29.756Z,14.75
2022-11-22T16:44:02.843Z,16.48
2022-11-22T16:46:47.632Z,14.25
2022-11-22T16:49:20.640Z,12.80
2022-11-22T16:51:50.983Z,18.90
2022-11-22T16:54:20.465Z,12.10
2022-11-22T16:56:49.579Z,17.42
2022-11-22T16:59:17.449Z,19.77
2022-11-22T17:01:50.173Z,7.03
2022-11-22T17:04:25.414Z,17.15
2022-11-22T17:06:53.712Z,12.13
2022-11-22T17:09:20.535Z,12.45
2022-11-22T17:11:49.198Z,11.55
2022-11-22T17:14:17.735Z,14.10
2022-11-22T17:16:47.861Z,13.98
2022-11-22T17:19:52.790Z,16.27
2022-11-22T17:22:07.296Z,15.15
2022-11-22T17:24:37.200Z,12.75
2022-11-22T17:27:05.355Z,15.45
2022-11-22T17:29:53.674Z,15.10
2022-11-22T17:32:21.601Z,16.77
2022-11-22T17:34:49.529Z,10.20
2022-11-22T17:37:18.458Z,20.35
2022-11-22T17:39:45.311Z,10.55
2022-11-22T17:42:15.249Z,16.92
2022-11-22T17:44:42.101Z,17.05
2022-11-22T17:47:09.097Z,13.02
2022-11-22T17:49:40.809Z,12.30
2022-11-22T17:52:11.915Z,11.57
2022-11-22T17:54:39.905Z,11.25
2022-11-22T17:57:10.476Z,10.82
2022-11-22T17:59:38.368Z,8.13
2022-11-22T18:02:05.152Z,13.52
2022-11-22T18:04:32.278Z,7.95
2022-11-22T18:06:59.439Z,16.90
2022-11-22T18:09:26.303Z,10.90
2022-11-22T18:11:55.464Z,10.75
2022-11-22T18:14:23.605Z,17.95
2022-11-22T18:16:50.801Z,7.65
2022-11-22T18:19:17.825Z,14.25
2022-11-22T18:21:47.727Z,14.93
2022-11-22T18:24:14.749Z,12.07
2022-11-22T18:26:42.852Z,10.77
2022-11-22T18:29:41.587Z,13.68
2022-11-22T18:31:59.869Z,9.30
2022-11-22T18:34:29.676Z,14.48
2022-11-22T18:37:04.883Z,15.10
2022-11-22T18:39:38.330Z,17.23
2022-11-22T18:42:10.602Z,13.77
2022-11-22T18:44:37.781Z,18.05
2022-11-22T18:47:05.769Z,19.27
2022-11-22T18:49:33.964Z,13.70
2022-11-22T18:52:02.020Z,19.08
2022-11-22T18:54:29.323Z,7.35
2022-11-22T18:56:57.345Z,9.20
2022-11-22T18:59:24.481Z,5.63
2022-11-22T19:01:51.340Z,11.38
2022-11-22T19:04:19.498Z,21.27
2022-11-22T19:06:46.411Z,10.63
2022-11-22T19:09:13.496Z,14.98
2022-11-22T19:11:40.889Z,13.40
2022-11-22T19:14:08.020Z,16.10
2022-11-22T19:16:34.929Z,11.10
2022-11-22T19:19:01.798Z,10.10
2022-11-22T19:21:30.016Z,14.63
2022-11-22T19:23:58.195Z,16.63
2022-11-22T19:26:27.570Z,12.32
2022-11-22T19:28:57.396Z,8.35
2022-11-22T19:31:31.602Z,17.52
2022-11-22T19:34:01.593Z,7.18
2022-11-22T19:36:34.121Z,12.23
2022-11-22T19:39:05.135Z,17.08
2022-11-22T19:41:32.702Z,15.52
2022-11-22T19:44:01.057Z,18.25
2022-11-22T19:46:30.160Z,10.82
2022-11-22T19:48:59.753Z,24.50
2022-11-22T19:51:28.322Z,12.25
2022-11-22T19:53:59.408Z,13.55
2022-11-22T19:56:31.730Z,16.63
2022-11-22T19:59:01.826Z,10.25
2022-11-22T20:01:32.100Z,13.18
2022-11-22T20:04:03.470Z,18.10
2022-11-22T20:06:34.247Z,14.80
2022-11-22T20:09:09.212Z,16.75
2022-11-22T20:11:37.785Z,16.02
2022-11-22T20:14:09.469Z,20.90
2022-11-22T20:16:38.446Z,15.63
2022-11-22T20:19:07.491Z,17.05
2022-11-22T20:21:39.606Z,41.90
2022-11-22T20:24:07.367Z,13.63
2022-11-22T20:26:34.906Z,18.90
2022-11-22T20:29:07.842Z,14.98
2022-11-22T20:31:37.952Z,18.98
2022-11-22T20:34:05.263Z,15.70
2022-11-22T20:36:34.777Z,16.95
2022-11-22T20:39:06.990Z,18.20
2022-11-22T20:41:37.560Z,13.90
2022-11-22T20:44:04.807Z,11.02
2022-11-22T20:46:31.789Z,18.50
2022-11-22T20:49:01.088Z,15.98
2022-11-22T20:51:29.639Z,13.13
2022-11-22T20:53:57.355Z,13.80
2022-11-22T20:56:25.119Z,11.65
2022-11-22T20:59:01.656Z,16.80
2022-11-22T21:01:31.788Z,17.10
2022-11-22T21:04:01.088Z,16.75
2022-11-22T21:06:28.569Z,18.60
2022-11-22T21:08:55.997Z,7.38
2022-11-22T21:11:27.641Z,12.25
2022-11-22T21:13:56.750Z,13.13
2022-11-22T21:16:28.736Z,13.38
2022-11-22T21:18:58.456Z,13.57
2022-11-22T21:21:33.276Z,16.45
2022-11-22T21:24:02.795Z,16.52
2022-11-22T21:26:34.816Z,10.57
2022-11-22T21:29:04.193Z,13.95
2022-11-22T21:31:32.003Z,13.63
2022-11-22T21:33:59.983Z,16.60
2022-11-22T21:36:26.966Z,14.88
2022-11-22T21:38:54.057Z,13.63
2022-11-22T21:41:40.346Z,14.32
2022-11-22T21:44:10.990Z,12.50
2022-11-22T21:46:38.316Z,9.43
2022-11-22T21:49:11.117Z,11.85
2022-11-22T21:51:38.047Z,19.45
2022-11-22T21:54:05.370Z,16.45
2022-11-22T21:56:32.974Z,14.48
2022-11-22T21:59:00.284Z,12.77
2022-11-22T22:01:28.466Z,19.20
2022-11-22T22:03:57.837Z,12.93
2022-11-22T22:06:26.798Z,11.98
2022-11-22T22:08:54.833Z,11.38
2022-11-22T22:11:22.058Z,9.50
2022-11-22T22:13:51.923Z,21.88
2022-11-22T22:16:19.341Z,19.38
2022-11-22T22:18:47.237Z,15.68
2022-11-22T22:21:18.336Z,16.73
2022-11-22T22:23:47.902Z,12.27
2022-11-22T22:26:16.703Z,7.90
2022-11-22T22:28:45.127Z,17.98
2022-11-22T22:31:21.890Z,12.48
2022-11-22T22:33:57.495Z,10.80
2022-11-22T22:36:26.826Z,10.00
2022-11-22T22:38:54.478Z,16.85
2022-11-22T22:41:21.438Z,13.82
2022-11-22T22:43:49.161Z,14.32
2022-11-22T22:46:20.378Z,9.23
2022-11-22T22:48:48.422Z,9.77
2022-11-22T22:51:16.439Z,9.43
2022-11-22T22:53:43.920Z,9.05
2022-11-22T22:56:11.734Z,9.63
2022-11-22T22:58:38.962Z,13.07
2022-11-22T23:01:17.620Z,17.17
2022-11-22T23:03:54.569Z,7.28
2022-11-22T23:06:22.478Z,10.40
2022-11-22T23:08:51.766Z,14.15
2022-11-22T23:11:43.701Z,5.88
2022-11-22T23:14:11.557Z,9.57
2022-11-22T23:16:39.438Z,9.60
2022-11-22T23:19:08.131Z,14.20
2022-11-22T23:21:36.006Z,7.93
2022-11-22T23:24:03.025Z,12.35
2022-11-22T23:26:30.032Z,13.15
2022-11-22T23:28:58.045Z,11.52
2022-11-22T23:31:29.119Z,14.10
2022-11-22T23:33:59.234Z,15.95
2022-11-22T23:36:29.227Z,15.38
2022-11-22T23:38:56.208Z,12.85
2022-11-22T23:41:25.255Z,19.02
2022-11-22T23:43:56.844Z,14.80
2022-11-22T23:46:27.551Z,15.45
2022-11-22T23:49:01.886Z,12.20
2022-11-22T23:51:30.669Z,14.60
2022-11-22T23:54:01.960Z,14.30
2022-11-22T23:56:32.742Z,12.65
2022-11-22T23:59:03.274Z,9.70
